Time;durP1;ratioP1;P1;durP2;ratioP2;P2;SDS_P1;SDS_P2;PMS_P1;PMS_P2;Temp;Humidity;BMP_temperature;BMP_pressure;BME280_temperature;BME280_humidity;BME280_pressure;Samples;Min_cycle;Max_cycle;Signal;HPM_P1;HPM_P2
2023/05/29 00:00:52;;;;;;;;;;;;;;;;;;137560;1272;22532;-81
2023/05/29 00:04:01;;;;;;;;;;;;;;;;;;137533;1272;22483;-81
2023/05/29 00:07:03;;;;;;;;;;;;;;;;;;137622;1272;22945;-80
2023/05/29 00:10:06;;;;;;;;;;;;;;;;;;137635;1272;22463;-82
2023/05/29 00:13:09;;;;;;;;;;;;;;;;;;137592;1272;22495;-79
2023/05/29 00:16:12;;;;;;;;;;;;;;;;;;137566;1272;22547;-81
2023/05/29 00:19:16;;;;;;;;;;;;;;;;;;137638;1272;22411;-83
2023/05/29 00:22:19;;;;;;;;;;;;;;;;;;137587;1272;22992;-82
2023/05/29 00:25:24;;;;;;;;;;;;;;;;;;137542;1272;22527;-82
2023/05/29 00:28:26;;;;;;;;;;;;;;;;;;137600;1272;22531;-81
2023/05/29 00:31:29;;;;;;;;;;;;;;;;;;137506;1272;22558;-81
2023/05/29 00:34:31;;;;;;;;;;;;;;;;;;137419;1272;22536;-82
2023/05/29 00:37:34;;;;;;;;;;;;;;;;;;137569;1272;25221;-82
2023/05/29 00:40:36;;;;;;;;;;;;;;;;;;137596;1272;22989;-81
2023/05/29 00:43:39;;;;;;;;;;;;;;;;;;137608;1272;22519;-82
2023/05/29 00:46:41;;;;;;;;;;;;;;;;;;137541;1272;22485;-81
2023/05/29 00:49:43;;;;;;;;;;;;;;;;;;137579;1272;22503;-80
2023/05/29 00:52:46;;;;;;;;;;;;;;;;;;137523;1272;22510;-81
2023/05/29 00:55:48;;;;;;;;;;;;;;;;;;137506;1272;22647;-81
2023/05/29 00:58:51;;;;;;;;;;;;;;;;;;137611;1272;22984;-82
2023/05/29 01:01:54;;;;;;;;;;;;;;;;;;137481;1272;23209;-82
2023/05/29 01:04:56;;;;;;;;;;;;;;;;;;137507;1272;23032;-82
2023/05/29 01:07:59;;;;;;;;;;;;;;;;;;137509;1272;22554;-82
2023/05/29 01:11:01;;;;;;;;;;;;;;;;;;137595;1272;22573;-82
2023/05/29 01:14:04;;;;;;;;;;;;;;;;;;137675;1272;22318;-82
2023/05/29 01:17:06;;;;;;;;;;;;;;;;;;137624;1272;22552;-82
2023/05/29 01:20:09;;;;;;;;;;;;;;;;;;137671;1272;22369;-82
2023/05/29 01:23:11;;;;;;;;;;;;;;;;;;137460;1260;198229;-82
2023/05/29 01:26:13;;;;;;;;;;;;;;;;;;137575;1272;22497;-82
2023/05/29 01:29:16;;;;;;;;;;;;;;;;;;137589;1272;23151;-82
2023/05/29 01:32:18;;;;;;;;;;;;;;;;;;137632;1272;22500;-84
2023/05/29 01:35:21;;;;;;;;;;;;;;;;;;137611;1272;23740;-82
2023/05/29 01:38:23;;;;;;;;;;;;;;;;;;137621;1272;22611;-82
2023/05/29 01:41:26;;;;;;;;;;;;;;;;;;137559;1272;22539;-81
2023/05/29 01:44:28;;;;;;;;;;;;;;;;;;137550;1272;22941;-80
2023/05/29 01:47:31;;;;;;;;;;;;;;;;;;137532;1272;22570;-80
2023/05/29 01:50:33;;;;;;;;;;;;;;;;;;137528;1272;22539;-80
2023/05/29 01:53:36;;;;;;;;;;;;;;;;;;137561;1272;22547;-81
2023/05/29 01:56:38;;;;;;;;;;;;;;;;;;137548;1265;22506;-79
2023/05/29 01:59:41;;;;;;;;;;;;;;;;;;137635;1272;22496;-81
2023/05/29 02:02:43;;;;;;;;;;;;;;;;;;137604;1272;22522;-81
2023/05/29 02:05:46;;;;;;;;;;;;;;;;;;137568;1272;22556;-81
2023/05/29 02:08:48;;;;;;;;;;;;;;;;;;137529;1272;22550;-82
2023/05/29 02:11:51;;;;;;;;;;;;;;;;;;137500;1272;22534;-81
2023/05/29 02:14:53;;;;;;;;;;;;;;;;;;137624;1272;22503;-82
2023/05/29 02:17:57;;;;;;;;;;;;;;;;;;136912;1272;22575;-81
2023/05/29 02:20:59;;;;;;;;;;;;;;;;;;137430;1272;22517;-81
2023/05/29 02:24:02;;;;;;;;;;;;;;;;;;137619;1272;22494;-81
2023/05/29 02:27:04;;;;;;;;;;;;;;;;;;137543;1272;22569;-81
2023/05/29 02:30:09;;;;;;;;;;;;;;;;;;137597;1272;22512;-81
2023/05/29 02:33:12;;;;;;;;;;;;;;;;;;137580;1268;23109;-81
2023/05/29 02:36:16;;;;;;;;;;;;;;;;;;137529;1272;22970;-82
2023/05/29 02:39:18;;;;;;;;;;;;;;;;;;137555;1272;22679;-81
2023/05/29 02:42:21;;;;;;;;;;;;;;;;;;137601;1272;22283;-81
2023/05/29 02:45:23;;;;;;;;;;;;;;;;;;137584;1272;22502;-81
2023/05/29 02:48:26;;;;;;;;;;;;;;;;;;137473;1272;22628;-82
2023/05/29 02:51:29;;;;;;;;;;;;;;;;;;137598;1272;22950;-82
2023/05/29 02:54:32;;;;;;;;;;;;;;;;;;137607;1272;22494;-83
2023/05/29 02:57:37;;;;;;;;;;;;;;;;;;137548;1272;22513;-82
2023/05/29 03:00:40;;;;;;;;;;;;;;;;;;137603;1272;22305;-83
2023/05/29 03:03:42;;;;;;;;;;;;;;;;;;137655;1272;22491;-81
2023/05/29 03:06:45;;;;;;;;;;;;;;;;;;137608;1272;22478;-81
2023/05/29 03:09:47;;;;;;;;;;;;;;;;;;137510;1272;22483;-81
2023/05/29 03:12:52;;;;;;;;;;;;;;;;;;137558;1272;22950;-82
2023/05/29 03:15:56;;;;;;;;;;;;;;;;;;137547;1272;22494;-82
2023/05/29 03:18:59;;;;;;;;;;;;;;;;;;137598;1273;22514;-83
2023/05/29 03:22:01;;;;;;;;;;;;;;;;;;137442;1272;22544;-82
2023/05/29 03:25:04;;;;;;;;;;;;;;;;;;137650;1272;22442;-82
2023/05/29 03:28:08;;;;;;;;;;;;;;;;;;137579;1272;22541;-82
2023/05/29 03:31:10;;;;;;;;;;;;;;;;;;137489;1268;22981;-82
2023/05/29 03:34:13;;;;;;;;;;;;;;;;;;137524;1272;22549;-82
2023/05/29 03:37:15;;;;;;;;;;;;;;;;;;137572;1272;22724;-82
2023/05/29 03:40:17;;;;;;;;;;;;;;;;;;137580;1272;23069;-83
2023/05/29 03:43:20;;;;;;;;;;;;;;;;;;137611;1272;22299;-83
2023/05/29 03:46:22;;;;;;;;;;;;;;;;;;137638;1272;22768;-82
2023/05/29 03:49:25;;;;;;;;;;;;;;;;;;137576;1272;22525;-83
2023/05/29 03:52:27;;;;;;;;;;;;;;;;;;137567;1272;22967;-82
2023/05/29 03:55:30;;;;;;;;;;;;;;;;;;137619;1272;22377;-86
2023/05/29 03:58:32;;;;;;;;;;;;;;;;;;137587;1272;22728;-82
2023/05/29 04:01:35;;;;;;;;;;;;;;;;;;137561;1272;22519;-83
2023/05/29 04:04:39;;;;;;;;;;;;;;;;;;137614;1272;22348;-82
2023/05/29 04:07:42;;;;;;;;;;;;;;;;;;137582;1272;22318;-82
2023/05/29 04:10:44;;;;;;;;;;;;;;;;;;137516;1272;22406;-82
2023/05/29 04:13:47;;;;;;;;;;;;;;;;;;137629;1272;22334;-83
2023/05/29 04:16:49;;;;;;;;;;;;;;;;;;137598;1272;22319;-80
2023/05/29 04:19:52;;;;;;;;;;;;;;;;;;137517;1272;23212;-81
2023/05/29 04:22:54;;;;;;;;;;;;;;;;;;137527;1272;22361;-82
2023/05/29 04:26:00;;;;;;;;;;;;;;;;;;137571;1272;22340;-81
2023/05/29 04:29:03;;;;;;;;;;;;;;;;;;137516;1272;22326;-82
2023/05/29 04:32:09;;;;;;;;;;;;;;;;;;137577;1272;23041;-84
2023/05/29 04:35:13;;;;;;;;;;;;;;;;;;137549;1272;22341;-82
2023/05/29 04:38:15;;;;;;;;;;;;;;;;;;137541;1272;22311;-82
2023/05/29 04:41:18;;;;;;;;;;;;;;;;;;137500;1272;22276;-82
2023/05/29 04:44:20;;;;;;;;;;;;;;;;;;137540;1272;22345;-82
2023/05/29 04:47:22;;;;;;;;;;;;;;;;;;137538;1272;22880;-82
2023/05/29 04:50:26;;;;;;;;;;;;;;;;;;137507;1272;22425;-82
2023/05/29 04:53:28;;;;;;;;;;;;;;;;;;137546;1272;22726;-83
2023/05/29 04:56:30;;;;;;;;;;;;;;;;;;137544;1272;22335;-82
2023/05/29 04:59:34;;;;;;;;;;;;;;;;;;137560;1272;22687;-81
2023/05/29 05:02:37;;;;;;;;;;;;;;;;;;137540;1269;22279;-83
2023/05/29 05:05:51;;;;;;;;;;;;;;;;;;137528;1272;23363;-82
2023/05/29 05:08:56;;;;;;;;;;;;;;;;;;137508;1272;22488;-82
2023/05/29 05:11:58;;;;;;;;;;;;;;;;;;137346;1272;22494;-81
2023/05/29 05:15:01;;;;;;;;;;;;;;;;;;137597;1272;22274;-82
2023/05/29 05:18:03;;;;;;;;;;;;;;;;;;137553;1272;22785;-82
2023/05/29 05:21:06;;;;;;;;;;;;;;;;;;137570;1272;22350;-82
2023/05/29 05:24:08;;;;;;;;;;;;;;;;;;137556;1272;22325;-82
2023/05/29 05:27:11;;;;;;;;;;;;;;;;;;137535;1272;22325;-80
2023/05/29 05:30:14;;;;;;;;;;;;;;;;;;137557;1272;22316;-80
2023/05/29 05:33:16;;;;;;;;;;;;;;;;;;137282;1272;22502;-82
2023/05/29 05:36:19;;;;;;;;;;;;;;;;;;137642;1272;22346;-82
2023/05/29 05:39:22;;;;;;;;;;;;;;;;;;137596;1272;22481;-82
2023/05/29 05:42:25;;;;;;;;;;;;;;;;;;137519;1272;22535;-81
2023/05/29 05:45:27;;;;;;;;;;;;;;;;;;137565;1272;22520;-83
2023/05/29 05:48:33;;;;;;;;;;;;;;;;;;137590;1272;23488;-82
2023/05/29 05:51:36;;;;;;;;;;;;;;;;;;137534;1265;22332;-82
2023/05/29 05:54:38;;;;;;;;;;;;;;;;;;137344;1272;22373;-82
2023/05/29 05:57:41;;;;;;;;;;;;;;;;;;137561;1272;22270;-82
2023/05/29 06:00:45;;;;;;;;;;;;;;;;;;137573;1272;22323;-83
2023/05/29 06:03:48;;;;;;;;;;;;;;;;;;137569;1272;22517;-84
2023/05/29 06:06:55;;;;;;;;;;;;;;;;;;137441;1272;22491;-83
2023/05/29 06:09:58;;;;;;;;;;;;;;;;;;137468;1273;22410;-84
2023/05/29 06:13:02;;;;;;;;;;;;;;;;;;137581;1273;22500;-84
2023/05/29 06:16:05;;;;;;;;;;;;;;;;;;137558;1273;22364;-82
2023/05/29 06:19:11;;;;;;;;;;;;;;;;;;137499;1272;22502;-84
2023/05/29 06:22:13;;;;;;;;;;;;;;;;;;137526;1273;22720;-84
2023/05/29 06:25:16;;;;;;;;;;;;;;;;;;137562;1273;22350;-82
2023/05/29 06:28:19;;;;;;;;;;;;;;;;;;137570;1273;22473;-82
2023/05/29 06:31:22;;;;;;;;;;;;;;;;;;137613;1272;22415;-83
2023/05/29 06:34:26;;;;;;;;;;;;;;;;;;137616;1273;22765;-82
2023/05/29 06:37:29;;;;;;;;;;;;;;;;;;137571;1273;22337;-83
2023/05/29 06:40:31;;;;;;;;;;;;;;;;;;137353;1273;22508;-83
2023/05/29 06:43:52;;;;;;;;;;;;;;;;;;133623;1305;544022;-80
2023/05/29 06:46:54;;;;;;;;;;;;;;;;;;136215;1283;23337;-82
2023/05/29 06:49:57;;;;;;;;;;;;;;;;;;137288;1276;22263;-82
2023/05/29 06:53:00;;;;;;;;;;;;;;;;;;137301;1276;22285;-81
2023/05/29 06:56:03;;;;;;;;;;;;;;;;;;135108;1273;2951244;-82
2023/05/29 06:59:06;;;;;;;;;;;;;;;;;;137533;1273;22783;-84
2023/05/29 07:02:09;;;;;;;;;;;;;;;;;;137356;1274;22495;-83
2023/05/29 07:05:11;;;;;;;;;;;;;;;;;;137442;1273;22530;-83
2023/05/29 07:08:14;;;;;;;;;;;;;;;;;;137564;1274;22719;-83
2023/05/29 07:11:17;;;;;;;;;;;;;;;;;;137446;1273;22516;-84
2023/05/29 07:14:19;;;;;;;;;;;;;;;;;;137288;1274;22549;-83
2023/05/29 07:17:22;;;;;;;;;;;;;;;;;;137553;1274;22378;-83
2023/05/29 07:20:32;;;;;;;;;;;;;;;;;;137326;1273;22486;-83
2023/05/29 07:23:35;;;;;;;;;;;;;;;;;;137455;1273;22493;-84
2023/05/29 07:26:37;;;;;;;;;;;;;;;;;;137584;1273;22506;-81
2023/05/29 07:29:40;;;;;;;;;;;;;;;;;;137536;1273;22331;-83
2023/05/29 07:32:42;;;;;;;;;;;;;;;;;;137519;1273;22272;-83
2023/05/29 07:35:45;;;;;;;;;;;;;;;;;;137508;1272;22500;-82
2023/05/29 07:38:48;;;;;;;;;;;;;;;;;;137562;1273;22263;-84
2023/05/29 07:41:51;;;;;;;;;;;;;;;;;;137276;1273;22494;-84
2023/05/29 07:44:53;;;;;;;;;;;;;;;;;;137529;1273;22290;-84
2023/05/29 07:47:56;;;;;;;;;;;;;;;;;;137387;1273;22965;-83
2023/05/29 07:50:58;;;;;;;;;;;;;;;;;;137548;1274;22335;-83
2023/05/29 07:54:01;;;;;;;;;;;;;;;;;;137362;1273;22583;-83
2023/05/29 07:57:09;;;;;;;;;;;;;;;;;;137225;1274;23421;-84
2023/05/29 08:00:13;;;;;;;;;;;;;;;;;;137515;1274;22318;-84
2023/05/29 08:03:16;;;;;;;;;;;;;;;;;;137471;1274;22294;-83
2023/05/29 08:06:18;;;;;;;;;;;;;;;;;;137489;1274;22327;-84
2023/05/29 08:09:21;;;;;;;;;;;;;;;;;;137169;1274;22458;-85
2023/05/29 08:12:23;;;;;;;;;;;;;;;;;;137469;1274;22443;-83
2023/05/29 08:15:26;;;;;;;;;;;;;;;;;;137494;1274;22356;-84
2023/05/29 08:18:29;;;;;;;;;;;;;;;;;;137484;1274;22637;-83
2023/05/29 08:21:32;;;;;;;;;;;;;;;;;;137492;1274;22305;-84
2023/05/29 08:24:34;;;;;;;;;;;;;;;;;;137470;1274;23056;-84
2023/05/29 08:27:37;;;;;;;;;;;;;;;;;;137447;1274;22370;-83
2023/05/29 08:30:42;;;;;;;;;;;;;;;;;;137516;1274;22438;-83
2023/05/29 08:33:45;;;;;;;;;;;;;;;;;;137504;1274;22272;-83
2023/05/29 08:36:51;;;;;;;;;;;;;;;;;;137423;1274;22483;-83
2023/05/29 08:39:54;;;;;;;;;;;;;;;;;;137243;1274;22611;-82
2023/05/29 08:42:57;;;;;;;;;;;;;;;;;;137526;1274;22475;-85
2023/05/29 08:45:59;;;;;;;;;;;;;;;;;;137418;1274;22623;-84
2023/05/29 08:49:02;;;;;;;;;;;;;;;;;;137456;1274;22315;-84
2023/05/29 08:52:06;;;;;;;;;;;;;;;;;;137460;1274;22299;-84
2023/05/29 08:55:09;;;;;;;;;;;;;;;;;;137549;1274;22270;-83
2023/05/29 08:58:12;;;;;;;;;;;;;;;;;;137525;1274;22425;-85
2023/05/29 09:01:15;;;;;;;;;;;;;;;;;;137497;1274;22290;-83
2023/05/29 09:04:18;;;;;;;;;;;;;;;;;;137489;1262;22335;-85
2023/05/29 09:07:21;;;;;;;;;;;;;;;;;;137502;1274;22316;-85
2023/05/29 09:10:25;;;;;;;;;;;;;;;;;;137477;1274;22341;-85
2023/05/29 09:13:29;;;;;;;;;;;;;;;;;;137515;1274;22400;-83
2023/05/29 09:16:31;;;;;;;;;;;;;;;;;;137451;1274;23156;-84
2023/05/29 09:19:40;;;;;;;;;;;;;;;;;;137184;1274;22529;-85
2023/05/29 09:22:43;;;;;;;;;;;;;;;;;;137551;1274;22396;-83
2023/05/29 09:25:46;;;;;;;;;;;;;;;;;;137136;1274;22472;-83
2023/05/29 09:28:51;;;;;;;;;;;;;;;;;;137559;1274;22843;-87
2023/05/29 09:32:01;;;;;;;;;;;;;;;;;;137484;1274;22349;-85
2023/05/29 09:35:04;;;;;;;;;;;;;;;;;;137491;1274;22265;-86
2023/05/29 09:38:13;;;;;;;;;;;;;;;;;;137566;1274;22254;-84
2023/05/29 09:41:23;;;;;;;;;;;;;;;;;;137605;1274;22400;-85
2023/05/29 09:44:34;;;;;;;;;;;;;;;;;;137603;1274;22322;-84
2023/05/29 09:47:50;;;;;;;;;;;;;;;;;;137455;1274;22429;-86
2023/05/29 09:50:57;;;;;;;;;;;;;;;;;;137469;1274;22328;-86
2023/05/29 09:54:01;;;;;;;;;;;;;;;;;;137421;1274;22358;-86
2023/05/29 09:57:07;;;;;;;;;;;;;;;;;;137419;1274;22479;-86
2023/05/29 10:00:16;;;;;;;;;;;;;;;;;;137400;1274;22536;-85
2023/05/29 10:03:29;;;;;;;;;;;;;;;;;;137185;1274;22491;-86
2023/05/29 10:06:38;;;;;;;;;;;;;;;;;;137250;1274;22516;-86
2023/05/29 10:09:41;;;;;;;;;;;;;;;;;;137438;1274;22489;-87
2023/05/29 10:12:46;;;;;;;;;;;;;;;;;;136830;1276;22575;-85
2023/05/29 10:15:50;;;;;;;;;;;;;;;;;;136351;1277;22525;-84
2023/05/29 10:18:54;;;;;;;;;;;;;;;;;;137035;1278;23142;-84
2023/05/29 10:21:58;;;;;;;;;;;;;;;;;;136880;1277;22830;-83
2023/05/29 10:25:01;;;;;;;;;;;;;;;;;;136986;1277;22537;-85
2023/05/29 10:28:04;;;;;;;;;;;;;;;;;;137110;1278;22482;-85
2023/05/29 10:31:09;;;;;;;;;;;;;;;;;;137353;1274;22439;-84
2023/05/29 10:34:12;;;;;;;;;;;;;;;;;;137410;1274;22584;-84
2023/05/29 10:37:21;;;;;;;;;;;;;;;;;;137499;1274;22306;-84
2023/05/29 10:40:37;;;;;;;;;;;;;;;;;;137379;1274;22626;-85
2023/05/29 10:43:43;;;;;;;;;;;;;;;;;;137444;1274;22534;-86
2023/05/29 10:46:47;;;;;;;;;;;;;;;;;;137445;1274;22367;-83
2023/05/29 10:49:50;;;;;;;;;;;;;;;;;;137468;1270;22318;-83
2023/05/29 10:52:53;;;;;;;;;;;;;;;;;;137437;1274;22349;-80
2023/05/29 10:55:55;;;;;;;;;;;;;;;;;;137493;1274;22353;-85
2023/05/29 10:58:58;;;;;;;;;;;;;;;;;;137441;1274;22334;-82
2023/05/29 11:02:00;;;;;;;;;;;;;;;;;;137441;1274;22534;-83
2023/05/29 11:05:03;;;;;;;;;;;;;;;;;;137478;1274;22261;-85
2023/05/29 11:08:06;;;;;;;;;;;;;;;;;;137465;1274;22933;-83
2023/05/29 11:11:09;;;;;;;;;;;;;;;;;;137437;1274;22904;-84
2023/05/29 11:14:11;;;;;;;;;;;;;;;;;;137460;1270;22261;-83
2023/05/29 11:17:13;;;;;;;;;;;;;;;;;;137482;1274;22504;-83
2023/05/29 11:20:16;;;;;;;;;;;;;;;;;;137306;1274;22493;-80
2023/05/29 11:23:19;;;;;;;;;;;;;;;;;;137363;1273;22581;-80
2023/05/29 11:29:39;;;;;;;;;;;;;;;;;;137035;1279;22875;-81
2023/05/29 11:32:41;;;;;;;;;;;;;;;;;;136970;1279;22584;-84
2023/05/29 11:35:43;;;;;;;;;;;;;;;;;;136880;1279;22558;-82
2023/05/29 11:38:46;;;;;;;;;;;;;;;;;;136992;1279;22878;-82
2023/05/29 11:41:48;;;;;;;;;;;;;;;;;;136979;1279;22537;-82
2023/05/29 11:44:51;;;;;;;;;;;;;;;;;;136969;1279;22614;-83
2023/05/29 11:47:53;;;;;;;;;;;;;;;;;;136938;1279;22547;-82
2023/05/29 11:51:00;;;;;;;;;;;;;;;;;;136938;1279;22548;-83
2023/05/29 11:54:03;;;;;;;;;;;;;;;;;;136940;1279;22468;-82
2023/05/29 11:57:05;;;;;;;;;;;;;;;;;;136910;1271;22330;-82
2023/05/29 12:00:10;;;;;;;;;;;;;;;;;;137133;1274;22442;-81
2023/05/29 12:03:13;;;;;;;;;;;;;;;;;;137452;1274;22349;-81
2023/05/29 12:06:15;;;;;;;;;;;;;;;;;;137436;1260;22262;-81
2023/05/29 12:09:18;;;;;;;;;;;;;;;;;;137452;1274;22370;-80
2023/05/29 12:12:20;;;;;;;;;;;;;;;;;;137375;1274;22453;-83
2023/05/29 12:15:25;;;;;;;;;;;;;;;;;;137334;1274;22825;-82
2023/05/29 12:18:29;;;;;;;;;;;;;;;;;;137424;1274;22314;-82
2023/05/29 12:21:32;;;;;;;;;;;;;;;;;;137323;1274;22737;-80
2023/05/29 12:24:34;;;;;;;;;;;;;;;;;;137245;1274;22313;-82
2023/05/29 12:27:41;;;;;;;;;;;;;;;;;;137258;1274;22333;-82
2023/05/29 12:30:45;;;;;;;;;;;;;;;;;;137344;1274;22398;-80
2023/05/29 12:33:48;;;;;;;;;;;;;;;;;;137329;1274;22324;-80
2023/05/29 12:36:50;;;;;;;;;;;;;;;;;;137332;1267;22350;-80
2023/05/29 12:39:53;;;;;;;;;;;;;;;;;;137345;1274;22752;-82
2023/05/29 12:42:55;;;;;;;;;;;;;;;;;;137355;1274;22913;-80
2023/05/29 12:45:58;;;;;;;;;;;;;;;;;;137381;1274;22360;-81
2023/05/29 12:49:00;;;;;;;;;;;;;;;;;;137384;1274;22369;-82
2023/05/29 12:52:03;;;;;;;;;;;;;;;;;;137371;1274;23005;-81
2023/05/29 12:55:06;;;;;;;;;;;;;;;;;;137379;1274;23086;-82
2023/05/29 12:58:08;;;;;;;;;;;;;;;;;;137320;1274;22326;-80
2023/05/29 13:01:11;;;;;;;;;;;;;;;;;;137333;1270;22873;-81
2023/05/29 13:04:15;;;;;;;;;;;;;;;;;;137333;1274;22727;-81
2023/05/29 13:07:18;;;;;;;;;;;;;;;;;;137380;1274;22660;-82
2023/05/29 13:10:20;;;;;;;;;;;;;;;;;;137410;1274;22292;-81
2023/05/29 13:13:23;;;;;;;;;;;;;;;;;;137386;1274;22419;-81
2023/05/29 13:16:25;;;;;;;;;;;;;;;;;;137424;1274;22774;-80
2023/05/29 13:19:28;;;;;;;;;;;;;;;;;;137442;1274;22867;-80
2023/05/29 13:22:32;;;;;;;;;;;;;;;;;;137438;1274;22376;-79
2023/05/29 13:25:35;;;;;;;;;;;;;;;;;;137412;1274;22260;-81
2023/05/29 13:28:37;;;;;;;;;;;;;;;;;;137413;1274;22301;-81
2023/05/29 13:31:40;;;;;;;;;;;;;;;;;;137438;1274;22893;-82
2023/05/29 13:34:42;;;;;;;;;;;;;;;;;;137500;1274;22488;-81
2023/05/29 13:37:45;;;;;;;;;;;;;;;;;;137421;1274;22392;-81
2023/05/29 13:40:47;;;;;;;;;;;;;;;;;;137456;1274;22392;-80
2023/05/29 13:43:50;;;;;;;;;;;;;;;;;;137456;1274;23024;-80
2023/05/29 13:46:53;;;;;;;;;;;;;;;;;;137426;1274;22339;-80
2023/05/29 13:49:55;;;;;;;;;;;;;;;;;;137446;1274;22793;-78
2023/05/29 13:52:58;;;;;;;;;;;;;;;;;;137400;1270;22355;-80
2023/05/29 13:56:00;;;;;;;;;;;;;;;;;;137393;1274;22322;-81
2023/05/29 13:59:05;;;;;;;;;;;;;;;;;;137412;1274;22319;-77
2023/05/29 14:02:08;;;;;;;;;;;;;;;;;;137442;1274;22320;-82
2023/05/29 14:05:11;;;;;;;;;;;;;;;;;;137495;1274;22364;-83
2023/05/29 14:08:14;;;;;;;;;;;;;;;;;;137444;1274;22286;-84
2023/05/29 14:11:16;;;;;;;;;;;;;;;;;;137513;1274;22480;-81
2023/05/29 14:14:19;;;;;;;;;;;;;;;;;;137472;1274;22379;-81
2023/05/29 14:17:22;;;;;;;;;;;;;;;;;;137442;1274;22353;-81
2023/05/29 14:20:25;;;;;;;;;;;;;;;;;;137409;1274;22439;-82
2023/05/29 14:23:27;;;;;;;;;;;;;;;;;;137410;1274;22628;-84
2023/05/29 14:26:30;;;;;;;;;;;;;;;;;;137461;1274;22344;-82
2023/05/29 14:29:32;;;;;;;;;;;;;;;;;;137422;1274;22507;-81
2023/05/29 14:32:35;;;;;;;;;;;;;;;;;;137434;1274;22529;-82
2023/05/29 14:35:38;;;;;;;;;;;;;;;;;;137507;1274;22876;-82
2023/05/29 14:38:44;;;;;;;;;;;;;;;;;;137387;1274;22667;-83
2023/05/29 14:41:46;;;;;;;;;;;;;;;;;;137463;1272;22599;-83
2023/05/29 14:44:49;;;;;;;;;;;;;;;;;;137451;1274;22389;-83
2023/05/29 14:47:52;;;;;;;;;;;;;;;;;;137468;1274;22495;-83
2023/05/29 14:50:57;;;;;;;;;;;;;;;;;;137422;1274;22599;-84
2023/05/29 14:53:59;;;;;;;;;;;;;;;;;;137446;1274;22670;-84
2023/05/29 14:57:02;;;;;;;;;;;;;;;;;;137547;1274;22337;-82
2023/05/29 15:00:05;;;;;;;;;;;;;;;;;;137093;1274;22809;-83
2023/05/29 15:03:08;;;;;;;;;;;;;;;;;;137470;1274;22355;-83
2023/05/29 15:06:11;;;;;;;;;;;;;;;;;;137448;1274;22531;-82
2023/05/29 15:09:14;;;;;;;;;;;;;;;;;;137505;1274;22279;-82
2023/05/29 15:12:16;;;;;;;;;;;;;;;;;;137493;1274;22452;-82
2023/05/29 15:15:19;;;;;;;;;;;;;;;;;;137396;1274;22516;-84
2023/05/29 15:18:21;;;;;;;;;;;;;;;;;;137408;1266;22958;-85
2023/05/29 15:21:24;;;;;;;;;;;;;;;;;;137457;1274;22597;-84
2023/05/29 15:24:26;;;;;;;;;;;;;;;;;;137391;1274;22514;-84
2023/05/29 15:27:30;;;;;;;;;;;;;;;;;;137488;1274;22268;-83
2023/05/29 15:30:33;;;;;;;;;;;;;;;;;;137473;1274;22598;-82
2023/05/29 15:33:35;;;;;;;;;;;;;;;;;;137437;1274;22505;-83
2023/05/29 15:36:39;;;;;;;;;;;;;;;;;;137423;1274;22504;-83
2023/05/29 15:39:42;;;;;;;;;;;;;;;;;;137583;1274;22288;-86
2023/05/29 15:42:45;;;;;;;;;;;;;;;;;;137400;1274;22492;-82
2023/05/29 15:45:48;;;;;;;;;;;;;;;;;;137425;1274;23091;-83
2023/05/29 15:48:51;;;;;;;;;;;;;;;;;;137451;1274;22340;-85
2023/05/29 15:51:53;;;;;;;;;;;;;;;;;;137524;1274;22818;-83
2023/05/29 15:54:56;;;;;;;;;;;;;;;;;;137534;1274;22738;-84
2023/05/29 15:57:58;;;;;;;;;;;;;;;;;;137280;1274;22544;-83
2023/05/29 16:01:02;;;;;;;;;;;;;;;;;;137635;1274;22500;-83
2023/05/29 16:04:06;;;;;;;;;;;;;;;;;;137447;1274;22481;-86
2023/05/29 16:07:09;;;;;;;;;;;;;;;;;;137384;1274;22611;-85
2023/05/29 16:10:11;;;;;;;;;;;;;;;;;;137396;1269;22557;-84
2023/05/29 16:13:14;;;;;;;;;;;;;;;;;;137453;1274;22409;-83
2023/05/29 16:16:18;;;;;;;;;;;;;;;;;;137423;1274;22400;-83
2023/05/29 16:19:21;;;;;;;;;;;;;;;;;;137406;1274;22284;-84
2023/05/29 16:22:24;;;;;;;;;;;;;;;;;;137412;1274;22390;-84
2023/05/29 16:25:26;;;;;;;;;;;;;;;;;;137428;1274;22828;-83
2023/05/29 16:28:29;;;;;;;;;;;;;;;;;;137463;1274;22367;-77
2023/05/29 16:31:31;;;;;;;;;;;;;;;;;;137457;1274;22904;-78
2023/05/29 16:34:34;;;;;;;;;;;;;;;;;;137426;1274;22322;-83
2023/05/29 16:37:36;;;;;;;;;;;;;;;;;;137433;1274;22365;-83
2023/05/29 16:40:39;;;;;;;;;;;;;;;;;;137439;1274;22925;-83
2023/05/29 16:43:41;;;;;;;;;;;;;;;;;;137450;1267;22411;-85
2023/05/29 16:46:44;;;;;;;;;;;;;;;;;;137477;1274;22320;-84
2023/05/29 16:49:47;;;;;;;;;;;;;;;;;;137390;1274;22507;-83
2023/05/29 16:52:50;;;;;;;;;;;;;;;;;;137226;1274;22541;-85
2023/05/29 16:55:52;;;;;;;;;;;;;;;;;;137462;1274;23083;-86
2023/05/29 16:58:55;;;;;;;;;;;;;;;;;;137486;1274;22526;-85
2023/05/29 17:01:57;;;;;;;;;;;;;;;;;;137493;1274;22334;-84
2023/05/29 17:05:00;;;;;;;;;;;;;;;;;;137508;1274;22281;-86
2023/05/29 17:08:02;;;;;;;;;;;;;;;;;;137211;1274;22523;-84
2023/05/29 17:11:05;;;;;;;;;;;;;;;;;;137486;1274;22590;-84
2023/05/29 17:14:07;;;;;;;;;;;;;;;;;;137491;1274;22326;-83
2023/05/29 17:17:10;;;;;;;;;;;;;;;;;;137490;1274;22382;-83
2023/05/29 17:20:14;;;;;;;;;;;;;;;;;;137403;1274;22560;-85
2023/05/29 17:23:17;;;;;;;;;;;;;;;;;;137523;1274;22853;-82
2023/05/29 17:26:19;;;;;;;;;;;;;;;;;;137468;1274;22442;-82
2023/05/29 17:29:22;;;;;;;;;;;;;;;;;;137478;1274;22368;-82
2023/05/29 17:32:25;;;;;;;;;;;;;;;;;;137368;1274;22513;-82
2023/05/29 17:35:28;;;;;;;;;;;;;;;;;;137346;1274;22834;-84
2023/05/29 17:38:30;;;;;;;;;;;;;;;;;;137368;1274;22493;-81
2023/05/29 17:41:32;;;;;;;;;;;;;;;;;;137523;1274;22947;-80
2023/05/29 17:44:35;;;;;;;;;;;;;;;;;;137471;1274;22508;-82
2023/05/29 17:47:39;;;;;;;;;;;;;;;;;;137391;1274;22586;-82
2023/05/29 17:50:41;;;;;;;;;;;;;;;;;;137452;1274;22351;-81
2023/05/29 17:53:44;;;;;;;;;;;;;;;;;;137375;1259;22601;-82
2023/05/29 17:56:46;;;;;;;;;;;;;;;;;;137510;1253;22990;-81
2023/05/29 17:59:49;;;;;;;;;;;;;;;;;;137501;1274;22603;-80
2023/05/29 18:02:51;;;;;;;;;;;;;;;;;;137452;1274;22539;-82
2023/05/29 18:05:54;;;;;;;;;;;;;;;;;;137503;1274;22494;-81
2023/05/29 18:08:57;;;;;;;;;;;;;;;;;;137499;1269;22336;-81
2023/05/29 18:12:01;;;;;;;;;;;;;;;;;;137515;1274;22554;-81
2023/05/29 18:15:03;;;;;;;;;;;;;;;;;;137540;1274;22359;-86
2023/05/29 18:18:06;;;;;;;;;;;;;;;;;;137358;1274;23076;-85
2023/05/29 18:21:09;;;;;;;;;;;;;;;;;;137464;1274;22503;-86
2023/05/29 18:24:11;;;;;;;;;;;;;;;;;;137447;1274;22961;-83
2023/05/29 18:27:14;;;;;;;;;;;;;;;;;;137351;1274;22586;-82
2023/05/29 18:30:17;;;;;;;;;;;;;;;;;;137504;1274;22570;-85
2023/05/29 18:33:19;;;;;;;;;;;;;;;;;;137454;1274;22940;-85
2023/05/29 18:36:22;;;;;;;;;;;;;;;;;;137434;1274;22482;-85
2023/05/29 18:39:24;;;;;;;;;;;;;;;;;;137558;1274;22266;-83
2023/05/29 18:42:26;;;;;;;;;;;;;;;;;;137353;1274;23054;-83
2023/05/29 18:45:29;;;;;;;;;;;;;;;;;;137463;1274;23408;-86
2023/05/29 18:48:31;;;;;;;;;;;;;;;;;;137528;1274;22894;-85
2023/05/29 18:51:34;;;;;;;;;;;;;;;;;;137331;1274;23202;-85
2023/05/29 18:54:37;;;;;;;;;;;;;;;;;;137367;1274;22565;-86
2023/05/29 18:57:40;;;;;;;;;;;;;;;;;;137162;1274;260031;-87
2023/05/29 19:00:42;;;;;;;;;;;;;;;;;;137431;1274;22567;-85
2023/05/29 19:03:46;;;;;;;;;;;;;;;;;;137480;1274;23062;-86
2023/05/29 19:06:48;;;;;;;;;;;;;;;;;;137414;1274;22523;-85
2023/05/29 19:09:50;;;;;;;;;;;;;;;;;;137513;1274;22285;-86
2023/05/29 19:12:53;;;;;;;;;;;;;;;;;;137468;1268;22374;-85
2023/05/29 19:15:55;;;;;;;;;;;;;;;;;;137522;1274;22293;-85
2023/05/29 19:18:59;;;;;;;;;;;;;;;;;;137533;1274;22822;-85
2023/05/29 19:22:01;;;;;;;;;;;;;;;;;;137514;1274;22737;-84
2023/05/29 19:25:04;;;;;;;;;;;;;;;;;;137524;1274;23171;-82
2023/05/29 19:28:08;;;;;;;;;;;;;;;;;;137510;1259;22291;-83
2023/05/29 19:31:10;;;;;;;;;;;;;;;;;;137506;1274;22459;-83
2023/05/29 19:34:13;;;;;;;;;;;;;;;;;;137458;1274;22520;-82
2023/05/29 19:37:15;;;;;;;;;;;;;;;;;;137443;1274;22342;-82
2023/05/29 19:40:18;;;;;;;;;;;;;;;;;;137460;1274;22735;-82
2023/05/29 19:43:22;;;;;;;;;;;;;;;;;;137492;1274;22482;-83
2023/05/29 19:46:24;;;;;;;;;;;;;;;;;;137516;1274;22289;-81
2023/05/29 19:49:27;;;;;;;;;;;;;;;;;;137437;1274;22395;-83
2023/05/29 19:52:30;;;;;;;;;;;;;;;;;;137470;1274;22635;-83
2023/05/29 19:55:32;;;;;;;;;;;;;;;;;;137431;1274;22513;-83
2023/05/29 19:58:35;;;;;;;;;;;;;;;;;;137480;1274;22770;-81
2023/05/29 20:01:37;;;;;;;;;;;;;;;;;;137537;1274;22715;-81
2023/05/29 20:04:40;;;;;;;;;;;;;;;;;;137511;1274;22329;-82
2023/05/29 20:07:42;;;;;;;;;;;;;;;;;;137457;1274;22547;-80
2023/05/29 20:10:44;;;;;;;;;;;;;;;;;;137509;1274;22350;-82
2023/05/29 20:13:47;;;;;;;;;;;;;;;;;;137444;1274;22352;-82
2023/05/29 20:16:50;;;;;;;;;;;;;;;;;;137483;1274;22797;-83
2023/05/29 20:19:54;;;;;;;;;;;;;;;;;;137470;1274;22328;-82
2023/05/29 20:22:57;;;;;;;;;;;;;;;;;;137416;1274;22324;-81
2023/05/29 20:25:59;;;;;;;;;;;;;;;;;;137457;1274;22335;-79
2023/05/29 20:29:01;;;;;;;;;;;;;;;;;;137446;1274;23116;-80
2023/05/29 20:32:04;;;;;;;;;;;;;;;;;;137433;1262;22763;-81